createdAt,value
2019-05-22T00:00:01.000Z,14.937
2019-05-22T00:04:01.000Z,14.875
2019-05-22T00:11:02.000Z,14.875
2019-05-22T00:20:02.000Z,14.75
2019-05-22T00:21:01.000Z,14.75
2019-05-22T00:22:01.000Z,14.75
2019-05-22T00:23:01.000Z,14.75
2019-05-22T00:23:02.000Z,14.812
2019-05-22T00:24:01.000Z,14.75
2019-05-22T00:25:01.000Z,14.75
2019-05-22T00:26:02.000Z,14.75
2019-05-22T00:27:02.000Z,14.75
2019-05-22T00:28:02.000Z,14.75
2019-05-22T00:29:01.000Z,14.75
2019-05-22T00:30:01.000Z,14.75
2019-05-22T00:31:01.000Z,14.75
2019-05-22T00:31:02.000Z,14.75
2019-05-22T00:32:01.000Z,14.75
2019-05-22T00:33:01.000Z,14.75
2019-05-22T00:34:01.000Z,14.75
2019-05-22T00:35:01.000Z,14.75
2019-05-22T00:36:01.000Z,14.75
2019-05-22T00:37:01.000Z,14.75
2019-05-22T00:38:01.000Z,14.687
2019-05-22T00:39:01.000Z,14.75
2019-05-22T00:40:01.000Z,14.687
2019-05-22T00:41:01.000Z,14.687
2019-05-22T00:42:01.000Z,14.75
2019-05-22T00:43:01.000Z,14.687
2019-05-22T00:43:02.000Z,14.687
2019-05-22T00:44:02.000Z,14.687
2019-05-22T00:45:02.000Z,14.687
2019-05-22T00:46:02.000Z,14.75
2019-05-22T00:47:01.000Z,14.75
2019-05-22T00:48:01.000Z,14.75
2019-05-22T00:49:01.000Z,14.687
2019-05-22T00:50:01.000Z,14.75
2019-05-22T00:51:01.000Z,14.687
2019-05-22T00:52:01.000Z,14.687
2019-05-22T00:53:01.000Z,14.687
2019-05-22T00:54:01.000Z,14.687
2019-05-22T00:55:02.000Z,14.687
2019-05-22T00:56:01.000Z,14.687
2019-05-22T00:57:01.000Z,14.625
2019-05-22T00:57:01.000Z,14.625
2019-05-22T00:58:02.000Z,14.625
2019-05-22T00:59:02.000Z,14.625
2019-05-22T01:00:02.000Z,14.625
2019-05-22T01:01:02.000Z,14.625
2019-05-22T01:02:02.000Z,14.625
2019-05-22T01:03:02.000Z,14.625
2019-05-22T01:04:02.000Z,14.625
2019-05-22T01:05:02.000Z,14.625
2019-05-22T01:06:01.000Z,14.625
2019-05-22T01:07:01.000Z,14.625
2019-05-22T01:08:01.000Z,14.625
2019-05-22T01:09:02.000Z,14.625
2019-05-22T01:10:02.000Z,14.625
2019-05-22T01:10:02.000Z,14.625
2019-05-22T01:11:02.000Z,14.625
2019-05-22T01:12:02.000Z,14.625
2019-05-22T01:13:01.000Z,14.625
2019-05-22T01:14:01.000Z,14.625
2019-05-22T01:15:01.000Z,14.625
2019-05-22T01:16:01.000Z,14.625
2019-05-22T01:17:01.000Z,14.625
2019-05-22T01:18:01.000Z,14.625
2019-05-22T01:19:01.000Z,14.562
2019-05-22T01:20:01.000Z,14.625
2019-05-22T01:21:02.000Z,14.625
2019-05-22T01:22:01.000Z,14.625
2019-05-22T01:23:01.000Z,14.625
2019-05-22T01:23:02.000Z,14.625
2019-05-22T01:24:01.000Z,14.625
2019-05-22T01:25:01.000Z,14.562
2019-05-22T01:26:01.000Z,14.562
2019-05-22T01:27:01.000Z,14.625
2019-05-22T01:28:01.000Z,14.562
2019-05-22T01:29:01.000Z,14.562
2019-05-22T01:30:02.000Z,14.562
2019-05-22T01:31:02.000Z,14.562
2019-05-22T01:32:02.000Z,14.562
2019-05-22T01:33:02.000Z,14.562
2019-05-22T01:34:02.000Z,14.562
2019-05-22T01:35:01.000Z,14.562
2019-05-22T01:35:02.000Z,14.562
2019-05-22T01:36:01.000Z,14.562
2019-05-22T01:37:01.000Z,14.562
2019-05-22T01:38:01.000Z,14.562
2019-05-22T01:39:01.000Z,14.562
2019-05-22T01:40:01.000Z,14.5
2019-05-22T01:41:01.000Z,14.562
2019-05-22T01:42:01.000Z,14.5
2019-05-22T01:43:01.000Z,14.5
2019-05-22T01:44:01.000Z,14.5
2019-05-22T01:44:02.000Z,14.5
2019-05-22T01:45:01.000Z,14.5
2019-05-22T01:46:01.000Z,14.5
2019-05-22T01:47:01.000Z,14.5
2019-05-22T01:48:01.000Z,14.437
2019-05-22T01:49:01.000Z,14.437
2019-05-22T01:50:02.000Z,14.437
2019-05-22T01:51:02.000Z,14.437
2019-05-22T01:52:01.000Z,14.437
2019-05-22T01:53:01.000Z,14.375
2019-05-22T01:54:01.000Z,14.437
2019-05-22T01:55:01.000Z,14.375
2019-05-22T01:56:01.000Z,14.375
2019-05-22T01:57:01.000Z,14.375
2019-05-22T01:57:01.000Z,14.375
2019-05-22T01:58:01.000Z,14.312
2019-05-22T01:59:02.000Z,14.312
2019-05-22T02:00:02.000Z,14.312
2019-05-22T02:01:01.000Z,14.25
2019-05-22T02:02:01.000Z,14.187
2019-05-22T02:03:02.000Z,14.187
2019-05-22T02:04:01.000Z,14.125
2019-05-22T02:05:02.000Z,14.062
2019-05-22T02:06:02.000Z,14.062
2019-05-22T02:07:02.000Z,14.062
2019-05-22T02:08:02.000Z,14
2019-05-22T02:09:02.000Z,14
2019-05-22T02:09:02.000Z,14
2019-05-22T02:10:02.000Z,14
2019-05-22T02:11:02.000Z,14
2019-05-22T02:12:01.000Z,14
2019-05-22T02:13:02.000Z,14
2019-05-22T02:14:01.000Z,14
2019-05-22T02:15:01.000Z,14
2019-05-22T02:16:01.000Z,14
2019-05-22T02:17:02.000Z,14
2019-05-22T02:18:01.000Z,14
2019-05-22T02:19:01.000Z,14
2019-05-22T02:20:01.000Z,14
2019-05-22T02:21:01.000Z,14
2019-05-22T02:22:01.000Z,14
2019-05-22T02:23:01.000Z,14
2019-05-22T02:23:01.000Z,14
2019-05-22T02:24:01.000Z,14
2019-05-22T02:24:02.000Z,14
2019-05-22T02:25:01.000Z,14
2019-05-22T02:25:02.000Z,14
2019-05-22T02:26:01.000Z,13.937
2019-05-22T02:26:02.000Z,13.937
2019-05-22T02:27:02.000Z,14
2019-05-22T02:27:02.000Z,14
2019-05-22T02:28:01.000Z,13.937
2019-05-22T02:29:01.000Z,14
2019-05-22T02:30:01.000Z,13.937
2019-05-22T02:31:01.000Z,13.937
2019-05-22T02:32:01.000Z,13.937
2019-05-22T02:33:01.000Z,14
2019-05-22T02:34:01.000Z,14
2019-05-22T02:35:02.000Z,14
2019-05-22T02:35:02.000Z,14
2019-05-22T02:36:01.000Z,13.937
2019-05-22T02:37:01.000Z,13.937
2019-05-22T02:38:01.000Z,13.937
2019-05-22T02:39:01.000Z,13.937
2019-05-22T02:40:01.000Z,13.937
2019-05-22T02:41:01.000Z,13.937
2019-05-22T02:42:01.000Z,13.937
2019-05-22T02:43:01.000Z,13.937
2019-05-22T02:44:01.000Z,13.937
2019-05-22T02:45:01.000Z,13.937
2019-05-22T02:46:02.000Z,13.937
2019-05-22T02:47:01.000Z,13.937
2019-05-22T02:48:01.000Z,13.937
2019-05-22T02:48:02.000Z,13.937
2019-05-22T02:49:01.000Z,13.937
2019-05-22T02:50:01.000Z,13.937
2019-05-22T02:51:01.000Z,13.937
2019-05-22T02:52:01.000Z,13.937
2019-05-22T02:53:01.000Z,13.937
2019-05-22T02:54:01.000Z,13.937
2019-05-22T02:55:02.000Z,13.875
2019-05-22T02:56:01.000Z,13.875
2019-05-22T02:57:02.000Z,13.875
2019-05-22T02:58:02.000Z,13.875
2019-05-22T02:59:02.000Z,13.875
2019-05-22T03:00:02.000Z,13.875
2019-05-22T03:00:02.000Z,13.875
2019-05-22T03:01:02.000Z,13.875
2019-05-22T03:02:01.000Z,13.812
2019-05-22T03:03:01.000Z,13.812
2019-05-22T03:04:01.000Z,13.812
2019-05-22T03:05:01.000Z,13.75
2019-05-22T03:06:01.000Z,13.75
2019-05-22T03:07:01.000Z,13.687
2019-05-22T03:08:01.000Z,13.625
2019-05-22T03:08:02.000Z,13.625
2019-05-22T03:09:02.000Z,13.625
2019-05-22T03:10:01.000Z,13.562
2019-05-22T03:11:01.000Z,13.562
2019-05-22T03:12:01.000Z,13.5
2019-05-22T03:13:01.000Z,13.437
2019-05-22T03:14:01.000Z,13.437
2019-05-22T03:15:01.000Z,13.375
2019-05-22T03:16:01.000Z,13.375
2019-05-22T03:17:01.000Z,13.375
2019-05-22T03:18:01.000Z,13.375
2019-05-22T03:19:01.000Z,13.375
2019-05-22T03:20:01.000Z,13.375
2019-05-22T03:21:02.000Z,13.375
2019-05-22T03:21:02.000Z,13.375
2019-05-22T03:22:02.000Z,13.312
2019-05-22T03:23:01.000Z,13.312
2019-05-22T03:24:01.000Z,13.312
2019-05-22T03:25:01.000Z,13.312
2019-05-22T03:26:02.000Z,13.312
2019-05-22T03:27:02.000Z,13.312
2019-05-22T03:28:01.000Z,13.312
2019-05-22T03:29:01.000Z,13.312
2019-05-22T03:30:01.000Z,13.312
2019-05-22T03:31:01.000Z,13.312
2019-05-22T03:32:01.000Z,13.312
2019-05-22T03:33:01.000Z,13.312
2019-05-22T03:34:01.000Z,13.25
2019-05-22T03:34:01.000Z,13.25
2019-05-22T03:35:01.000Z,13.187
2019-05-22T03:36:01.000Z,13.187
2019-05-22T03:37:01.000Z,13.125
2019-05-22T03:38:01.000Z,13.125
2019-05-22T03:39:02.000Z,13.062
2019-05-22T03:40:01.000Z,13.062
2019-05-22T03:41:02.000Z,13
2019-05-22T03:42:02.000Z,13
2019-05-22T03:43:02.000Z,13.062
2019-05-22T03:44:02.000Z,13
2019-05-22T03:45:01.000Z,13
2019-05-22T03:46:01.000Z,13
2019-05-22T03:47:02.000Z,13
2019-05-22T03:47:02.000Z,13
2019-05-22T03:48:02.000Z,13
2019-05-22T03:49:02.000Z,13
2019-05-22T03:50:02.000Z,13
2019-05-22T03:51:02.000Z,13.062
2019-05-22T03:52:02.000Z,13.062
2019-05-22T03:53:02.000Z,13
2019-05-22T03:54:01.000Z,13
2019-05-22T03:55:01.000Z,13
2019-05-22T03:56:02.000Z,13
2019-05-22T03:57:02.000Z,12.937
2019-05-22T03:58:02.000Z,12.875
2019-05-22T03:59:01.000Z,12.875
2019-05-22T04:00:01.000Z,12.875
2019-05-22T04:00:01.000Z,12.875
2019-05-22T04:01:02.000Z,12.875
2019-05-22T04:02:02.000Z,12.875
2019-05-22T04:03:02.000Z,12.812
2019-05-22T04:04:01.000Z,12.812
2019-05-22T04:05:02.000Z,12.812
2019-05-22T04:06:01.000Z,12.812
2019-05-22T04:07:01.000Z,12.812
2019-05-22T04:08:02.000Z,12.812
2019-05-22T04:09:01.000Z,12.75
2019-05-22T04:10:01.000Z,12.75
2019-05-22T04:11:01.000Z,12.75
2019-05-22T04:12:01.000Z,12.75
2019-05-22T04:12:01.000Z,12.75
2019-05-22T04:13:01.000Z,12.75
2019-05-22T04:14:01.000Z,12.75
2019-05-22T04:15:01.000Z,12.687
2019-05-22T04:16:01.000Z,12.687
2019-05-22T04:17:02.000Z,12.687
2019-05-22T04:18:01.000Z,12.687
2019-05-22T04:19:01.000Z,12.687
2019-05-22T04:20:01.000Z,12.687
2019-05-22T04:21:02.000Z,12.625
2019-05-22T04:21:02.000Z,12.625
2019-05-22T04:22:02.000Z,12.625
2019-05-22T04:23:02.000Z,12.562
2019-05-22T04:24:02.000Z,12.562
2019-05-22T04:25:02.000Z,12.562
2019-05-22T04:26:02.000Z,12.562
2019-05-22T04:27:01.000Z,12.5
2019-05-22T04:28:01.000Z,12.5
2019-05-22T04:29:01.000Z,12.5
2019-05-22T04:30:01.000Z,12.5
2019-05-22T04:31:01.000Z,12.5
2019-05-22T04:32:01.000Z,12.5
2019-05-22T04:33:01.000Z,12.5
2019-05-22T04:34:01.000Z,12.5
2019-05-22T04:34:01.000Z,12.5
2019-05-22T04:35:01.000Z,12.437
2019-05-22T04:36:01.000Z,12.437
2019-05-22T04:37:01.000Z,12.437
2019-05-22T04:38:01.000Z,12.437
2019-05-22T04:39:01.000Z,12.437
2019-05-22T04:40:01.000Z,12.437
2019-05-22T04:41:01.000Z,12.437
2019-05-22T04:42:01.000Z,12.437
2019-05-22T04:43:01.000Z,12.375
2019-05-22T04:44:01.000Z,12.312
2019-05-22T04:45:01.000Z,12.375
2019-05-22T04:46:02.000Z,12.375
2019-05-22T04:47:02.000Z,12.375
2019-05-22T04:47:02.000Z,12.375
2019-05-22T04:48:02.000Z,12.375
2019-05-22T04:49:02.000Z,12.375
2019-05-22T04:50:01.000Z,12.375
2019-05-22T04:51:01.000Z,12.312
2019-05-22T04:52:01.000Z,12.312
2019-05-22T04:53:01.000Z,12.312
2019-05-22T04:54:01.000Z,12.312
2019-05-22T04:55:01.000Z,12.25
2019-05-22T04:56:01.000Z,12.25
2019-05-22T04:57:01.000Z,12.25
2019-05-22T04:58:01.000Z,12.187
2019-05-22T04:59:01.000Z,12.187
2019-05-22T05:00:01.000Z,12.125
2019-05-22T05:00:01.000Z,12.125
2019-05-22T05:01:01.000Z,12.125
2019-05-22T05:02:02.000Z,12.125
2019-05-22T05:03:02.000Z,12.062
2019-05-22T05:04:01.000Z,12.062
2019-05-22T05:05:01.000Z,12.062
2019-05-22T05:06:01.000Z,12
2019-05-22T05:07:01.000Z,12
2019-05-22T05:08:01.000Z,12
2019-05-22T05:09:02.000Z,12
2019-05-22T05:10:01.000Z,12
2019-05-22T05:11:01.000Z,12
2019-05-22T05:12:01.000Z,12
2019-05-22T05:13:01.000Z,12
2019-05-22T05:13:01.000Z,12
2019-05-22T05:14:02.000Z,11.937
2019-05-22T05:15:01.000Z,11.937
2019-05-22T05:16:01.000Z,11.875
2019-05-22T05:17:01.000Z,11.937
2019-05-22T05:18:01.000Z,11.937
2019-05-22T05:19:01.000Z,11.937
2019-05-22T05:20:01.000Z,11.937
2019-05-22T05:21:01.000Z,11.937
2019-05-22T05:22:01.000Z,11.875
2019-05-22T05:23:01.000Z,11.937
2019-05-22T05:24:01.000Z,11.937
2019-05-22T05:25:01.000Z,11.937
2019-05-22T05:25:01.000Z,11.937
2019-05-22T05:26:01.000Z,11.875
2019-05-22T05:27:02.000Z,11.875
2019-05-22T05:28:02.000Z,11.875
2019-05-22T05:29:02.000Z,11.875
2019-05-22T05:30:01.000Z,11.937
2019-05-22T05:31:01.000Z,11.812
2019-05-22T05:32:01.000Z,11.875
2019-05-22T05:33:01.000Z,11.875
2019-05-22T05:34:01.000Z,11.812
2019-05-22T05:34:02.000Z,11.812
2019-05-22T05:35:02.000Z,11.812
2019-05-22T05:36:01.000Z,11.812
2019-05-22T05:37:01.000Z,11.812
2019-05-22T05:38:01.000Z,11.75
2019-05-22T05:39:01.000Z,11.75
2019-05-22T05:40:01.000Z,11.75
2019-05-22T05:41:02.000Z,11.75
2019-05-22T05:42:02.000Z,11.687
2019-05-22T05:43:02.000Z,11.687
2019-05-22T05:44:02.000Z,11.687
2019-05-22T05:45:01.000Z,11.687
2019-05-22T05:46:02.000Z,11.687
2019-05-22T05:47:01.000Z,11.687
2019-05-22T05:47:01.000Z,11.687
2019-05-22T05:48:01.000Z,11.687
2019-05-22T05:49:01.000Z,11.687
2019-05-22T05:50:02.000Z,11.687
2019-05-22T05:51:01.000Z,11.687
2019-05-22T05:52:01.000Z,11.75
2019-05-22T05:53:01.000Z,11.75
2019-05-22T05:54:01.000Z,11.75
2019-05-22T05:55:01.000Z,11.75
2019-05-22T05:56:01.000Z,11.75
2019-05-22T05:57:01.000Z,11.687
2019-05-22T05:58:01.000Z,11.687
2019-05-22T05:59:01.000Z,11.625
2019-05-22T06:00:01.000Z,11.625
2019-05-22T06:01:01.000Z,11.625
2019-05-22T06:01:01.000Z,11.625
2019-05-22T06:02:01.000Z,11.562
2019-05-22T06:03:01.000Z,11.562
2019-05-22T06:04:01.000Z,11.5
2019-05-22T06:05:02.000Z,11.5
2019-05-22T06:06:01.000Z,11.5
2019-05-22T06:07:01.000Z,11.5
2019-05-22T06:08:01.000Z,11.5
2019-05-22T06:09:01.000Z,11.5
2019-05-22T06:10:01.000Z,11.5
2019-05-22T06:11:01.000Z,11.5
2019-05-22T06:12:01.000Z,11.5
2019-05-22T06:13:01.000Z,11.5
2019-05-22T06:13:02.000Z,11.5
2019-05-22T06:14:01.000Z,11.5
2019-05-22T06:15:01.000Z,11.5
2019-05-22T06:16:01.000Z,11.5
2019-05-22T06:17:01.000Z,11.5
2019-05-22T06:18:01.000Z,11.5
2019-05-22T06:19:01.000Z,11.5
2019-05-22T06:20:01.000Z,11.5
2019-05-22T06:21:01.000Z,11.5
2019-05-22T06:22:01.000Z,11.5
2019-05-22T06:23:01.000Z,11.5
2019-05-22T06:24:01.000Z,11.562
2019-05-22T06:25:01.000Z,11.562
2019-05-22T06:26:01.000Z,11.562
2019-05-22T06:26:01.000Z,11.562
2019-05-22T06:27:01.000Z,11.562
2019-05-22T06:28:01.000Z,11.562
2019-05-22T06:29:01.000Z,11.562
2019-05-22T06:30:01.000Z,11.562
2019-05-22T06:31:01.000Z,11.562
2019-05-22T06:32:01.000Z,11.562
2019-05-22T06:33:01.000Z,11.5
2019-05-22T06:34:01.000Z,11.5
2019-05-22T06:35:01.000Z,11.5
2019-05-22T06:36:01.000Z,11.5
2019-05-22T06:37:01.000Z,11.5
2019-05-22T06:38:01.000Z,11.437
2019-05-22T06:38:01.000Z,11.5
2019-05-22T06:39:01.000Z,11.437
2019-05-22T06:40:01.000Z,11.437
2019-05-22T06:41:02.000Z,11.5
2019-05-22T06:42:01.000Z,11.437
2019-05-22T06:43:02.000Z,11.437
2019-05-22T06:44:01.000Z,11.437
2019-05-22T06:45:02.000Z,11.437
2019-05-22T06:46:02.000Z,11.437
2019-05-22T06:46:02.000Z,11.437
2019-05-22T06:47:02.000Z,11.437
2019-05-22T06:48:01.000Z,11.437
2019-05-22T06:49:01.000Z,11.437
2019-05-22T06:50:01.000Z,11.437
2019-05-22T06:51:01.000Z,11.437
2019-05-22T06:52:02.000Z,11.375
2019-05-22T06:53:02.000Z,11.375
2019-05-22T06:54:01.000Z,11.375
2019-05-22T06:55:01.000Z,11.437
2019-05-22T06:56:02.000Z,11.437
2019-05-22T06:57:02.000Z,11.375
2019-05-22T06:58:01.000Z,11.375
2019-05-22T06:59:02.000Z,11.375
2019-05-22T06:59:02.000Z,11.375
2019-05-22T07:00:02.000Z,11.375
2019-05-22T07:01:01.000Z,11.375
2019-05-22T07:02:01.000Z,11.312
2019-05-22T07:03:01.000Z,11.312
2019-05-22T07:04:01.000Z,11.312
2019-05-22T07:05:02.000Z,11.312
2019-05-22T07:06:02.000Z,11.312
2019-05-22T07:07:02.000Z,11.312
2019-05-22T07:08:01.000Z,11.312
2019-05-22T07:09:01.000Z,11.312
2019-05-22T07:10:01.000Z,11.375
2019-05-22T07:11:01.000Z,11.375
2019-05-22T07:12:01.000Z,11.375
2019-05-22T07:12:02.000Z,11.375
2019-05-22T07:13:01.000Z,11.312
2019-05-22T07:14:01.000Z,11.375
2019-05-22T07:15:01.000Z,11.375
2019-05-22T07:16:01.000Z,11.375
2019-05-22T07:17:01.000Z,11.375
2019-05-22T07:18:01.000Z,11.437
2019-05-22T07:19:01.000Z,11.437
2019-05-22T07:20:01.000Z,11.437
2019-05-22T07:21:02.000Z,11.437
2019-05-22T07:22:02.000Z,11.437
2019-05-22T07:23:01.000Z,11.437
2019-05-22T07:24:01.000Z,11.5
2019-05-22T07:25:01.000Z,11.5
2019-05-22T07:26:01.000Z,11.5
2019-05-22T07:26:01.000Z,11.5
2019-05-22T07:27:01.000Z,11.5
2019-05-22T07:28:01.000Z,11.5
2019-05-22T07:29:01.000Z,11.5
2019-05-22T07:30:01.000Z,11.5
2019-05-22T07:31:01.000Z,11.5
2019-05-22T07:32:01.000Z,11.5
2019-05-22T07:33:01.000Z,11.5
2019-05-22T07:34:01.000Z,11.5
2019-05-22T07:35:01.000Z,11.5
2019-05-22T07:36:02.000Z,11.5
2019-05-22T07:37:01.000Z,11.5
2019-05-22T07:38:01.000Z,11.562
2019-05-22T07:39:01.000Z,11.562
2019-05-22T07:39:02.000Z,11.562
2019-05-22T07:40:02.000Z,11.562
2019-05-22T07:41:01.000Z,11.562
2019-05-22T07:42:02.000Z,11.562
2019-05-22T07:43:02.000Z,11.562
2019-05-22T07:44:01.000Z,11.562
2019-05-22T07:45:01.000Z,11.5
2019-05-22T07:46:01.000Z,11.5
2019-05-22T07:47:02.000Z,11.5
2019-05-22T07:48:02.000Z,11.562
2019-05-22T07:49:01.000Z,11.562
2019-05-22T07:50:01.000Z,11.562
2019-05-22T07:51:01.000Z,11.562
2019-05-22T07:51:01.000Z,11.562
2019-05-22T07:52:01.000Z,11.562
2019-05-22T07:53:01.000Z,11.562
2019-05-22T07:54:01.000Z,11.562
2019-05-22T07:55:01.000Z,11.562
2019-05-22T07:56:02.000Z,11.562
2019-05-22T07:57:01.000Z,11.562
2019-05-22T07:58:01.000Z,11.562
2019-05-22T07:59:02.000Z,11.625
2019-05-22T07:59:02.000Z,11.625
2019-05-22T08:00:02.000Z,11.687
2019-05-22T08:01:02.000Z,11.687
2019-05-22T08:02:02.000Z,11.75
2019-05-22T08:03:02.000Z,11.687
2019-05-22T08:04:02.000Z,11.687
2019-05-22T08:05:02.000Z,11.687
2019-05-22T08:06:01.000Z,11.625
2019-05-22T08:07:01.000Z,11.625
2019-05-22T08:08:01.000Z,11.562
2019-05-22T08:09:01.000Z,11.625
2019-05-22T08:10:01.000Z,11.625
2019-05-22T08:11:01.000Z,11.562
2019-05-22T08:11:01.000Z,11.562
2019-05-22T08:12:02.000Z,11.625
2019-05-22T08:13:02.000Z,11.687
2019-05-22T08:14:02.000Z,11.75
2019-05-22T08:15:01.000Z,11.75
2019-05-22T08:16:01.000Z,11.687
2019-05-22T08:17:01.000Z,11.687
2019-05-22T08:18:02.000Z,11.687
2019-05-22T08:19:01.000Z,11.687
2019-05-22T08:20:02.000Z,11.687
2019-05-22T08:21:01.000Z,11.687
2019-05-22T08:22:01.000Z,11.687
2019-05-22T08:23:02.000Z,11.687
2019-05-22T08:24:02.000Z,11.687
2019-05-22T08:24:02.000Z,11.687
2019-05-22T08:25:02.000Z,11.75
2019-05-22T08:26:01.000Z,11.75
2019-05-22T08:27:01.000Z,11.812
2019-05-22T08:28:01.000Z,11.75
2019-05-22T08:29:02.000Z,11.75
2019-05-22T08:30:01.000Z,11.75
2019-05-22T08:31:01.000Z,11.75
2019-05-22T08:32:01.000Z,11.75
2019-05-22T08:33:01.000Z,11.687
2019-05-22T08:34:01.000Z,11.687
2019-05-22T08:35:02.000Z,11.687
2019-05-22T08:36:01.000Z,11.687
2019-05-22T08:36:01.000Z,11.687
2019-05-22T08:37:01.000Z,11.687
2019-05-22T08:38:01.000Z,11.625
2019-05-22T08:39:01.000Z,11.562
2019-05-22T08:40:01.000Z,11.562
2019-05-22T08:41:01.000Z,11.562
2019-05-22T08:42:01.000Z,11.562
2019-05-22T08:43:01.000Z,11.625
2019-05-22T08:44:01.000Z,11.562
2019-05-22T08:45:02.000Z,11.562
2019-05-22T08:46:02.000Z,11.562
2019-05-22T08:47:02.000Z,11.562
2019-05-22T08:48:02.000Z,11.562
2019-05-22T08:49:02.000Z,11.625
2019-05-22T08:49:02.000Z,11.625
2019-05-22T08:50:01.000Z,11.625
2019-05-22T08:51:02.000Z,11.687
2019-05-22T08:52:01.000Z,11.687
2019-05-22T08:53:01.000Z,11.625
2019-05-22T08:54:01.000Z,11.687
2019-05-22T08:55:01.000Z,11.687
2019-05-22T08:56:02.000Z,11.687
2019-05-22T08:57:02.000Z,11.625
2019-05-22T08:58:02.000Z,11.687
2019-05-22T08:59:02.000Z,11.687
2019-05-22T09:00:01.000Z,11.687
2019-05-22T09:00:02.000Z,11.687
2019-05-22T09:01:01.000Z,11.687
2019-05-22T09:02:01.000Z,11.75
2019-05-22T09:03:01.000Z,11.75
2019-05-22T09:04:01.000Z,11.812
2019-05-22T09:05:01.000Z,11.812
2019-05-22T09:06:01.000Z,11.812
2019-05-22T09:07:02.000Z,11.812
2019-05-22T09:08:02.000Z,11.812
2019-05-22T09:08:02.000Z,11.812
2019-05-22T09:09:02.000Z,11.875
2019-05-22T09:10:01.000Z,11.812
2019-05-22T09:11:01.000Z,11.812
2019-05-22T09:12:01.000Z,11.812
2019-05-22T09:13:01.000Z,11.75
2019-05-22T09:14:01.000Z,11.75
2019-05-22T09:15:01.000Z,11.812
2019-05-22T09:16:01.000Z,11.812
2019-05-22T09:17:01.000Z,11.75
2019-05-22T09:18:01.000Z,11.75
2019-05-22T09:19:01.000Z,11.687
2019-05-22T09:20:01.000Z,11.75
2019-05-22T09:21:01.000Z,11.687
2019-05-22T09:21:01.000Z,11.687
2019-05-22T09:22:01.000Z,11.687
2019-05-22T09:23:02.000Z,11.687
2019-05-22T09:24:02.000Z,11.625
2019-05-22T09:25:02.000Z,11.625
2019-05-22T09:26:01.000Z,11.687
2019-05-22T09:27:01.000Z,11.687
2019-05-22T09:28:01.000Z,11.625
2019-05-22T09:29:01.000Z,11.687
2019-05-22T09:30:01.000Z,11.687
2019-05-22T09:31:02.000Z,11.687
2019-05-22T09:32:02.000Z,11.687
2019-05-22T09:33:02.000Z,11.625
2019-05-22T09:33:02.000Z,11.625
2019-05-22T09:34:01.000Z,11.625
2019-05-22T09:35:01.000Z,11.625
2019-05-22T09:36:01.000Z,11.625
2019-05-22T09:37:01.000Z,11.625
2019-05-22T09:38:01.000Z,11.625
2019-05-22T09:39:01.000Z,11.687
2019-05-22T09:40:01.000Z,11.625
2019-05-22T09:41:01.000Z,11.625
2019-05-22T09:42:02.000Z,11.687
2019-05-22T09:43:01.000Z,11.687
2019-05-22T09:44:01.000Z,11.75
2019-05-22T09:45:01.000Z,11.75
2019-05-22T09:46:01.000Z,11.687
2019-05-22T09:46:02.000Z,11.75
2019-05-22T09:47:01.000Z,11.75
2019-05-22T09:48:01.000Z,11.812
2019-05-22T09:49:01.000Z,11.812
2019-05-22T09:50:01.000Z,11.75
2019-05-22T09:51:02.000Z,11.75
2019-05-22T09:52:02.000Z,11.75
2019-05-22T09:53:02.000Z,11.75
2019-05-22T09:54:02.000Z,11.687
2019-05-22T09:55:02.000Z,11.687
2019-05-22T09:56:01.000Z,11.75
2019-05-22T09:57:01.000Z,11.75
2019-05-22T09:58:01.000Z,11.812
2019-05-22T09:58:01.000Z,11.812
2019-05-22T09:59:01.000Z,11.75
2019-05-22T10:00:01.000Z,11.812
2019-05-22T10:01:02.000Z,11.75
2019-05-22T10:02:01.000Z,11.687
2019-05-22T10:03:01.000Z,11.75
2019-05-22T10:04:01.000Z,11.687
2019-05-22T10:05:01.000Z,11.75
2019-05-22T10:06:02.000Z,11.75
2019-05-22T10:07:02.000Z,11.812
2019-05-22T10:08:02.000Z,11.75
2019-05-22T10:09:02.000Z,11.75
2019-05-22T10:10:01.000Z,11.687
2019-05-22T10:10:02.000Z,11.687
2019-05-22T10:11:01.000Z,11.75
2019-05-22T10:12:01.000Z,11.812
2019-05-22T10:13:01.000Z,11.812
2019-05-22T10:14:01.000Z,11.812
2019-05-22T10:15:01.000Z,11.812
2019-05-22T10:16:01.000Z,11.812
2019-05-22T10:17:01.000Z,11.875
2019-05-22T10:18:01.000Z,11.875
2019-05-22T10:19:01.000Z,11.875
2019-05-22T10:19:01.000Z,11.875
2019-05-22T10:20:02.000Z,11.875
2019-05-22T10:21:02.000Z,12
2019-05-22T10:22:02.000Z,12
2019-05-22T10:23:02.000Z,12
2019-05-22T10:24:02.000Z,11.937
2019-05-22T10:25:02.000Z,11.937
2019-05-22T10:26:01.000Z,12
2019-05-22T10:27:01.000Z,12.125
2019-05-22T10:28:02.000Z,12.25
2019-05-22T10:29:02.000Z,12.375
2019-05-22T10:30:02.000Z,12.375
2019-05-22T10:31:02.000Z,12.375
2019-05-22T10:32:01.000Z,12.375
2019-05-22T10:33:01.000Z,12.437
2019-05-22T10:33:02.000Z,12.437
2019-05-22T10:34:01.000Z,12.437
2019-05-22T10:35:01.000Z,12.437
2019-05-22T10:36:01.000Z,12.375
2019-05-22T10:37:01.000Z,12.312
2019-05-22T10:38:02.000Z,12.312
2019-05-22T10:39:02.000Z,12.125
2019-05-22T10:40:01.000Z,12.187
2019-05-22T10:41:01.000Z,12.125
2019-05-22T10:42:01.000Z,12.125
2019-05-22T10:43:01.000Z,12.125
2019-05-22T10:44:01.000Z,12.062
2019-05-22T10:45:01.000Z,12
2019-05-22T10:46:01.000Z,11.937
2019-05-22T10:46:02.000Z,11.937
2019-05-22T10:47:01.000Z,11.937
2019-05-22T10:48:01.000Z,11.937
2019-05-22T10:49:01.000Z,11.875
2019-05-22T10:50:01.000Z,11.875
2019-05-22T10:51:01.000Z,11.812
2019-05-22T10:52:01.000Z,11.875
2019-05-22T10:53:01.000Z,11.875
2019-05-22T10:54:01.000Z,11.875
2019-05-22T10:55:01.000Z,11.875
2019-05-22T10:56:01.000Z,11.812
2019-05-22T10:57:01.000Z,11.812
2019-05-22T10:58:01.000Z,11.812
2019-05-22T10:59:01.000Z,11.812
2019-05-22T10:59:02.000Z,11.812
2019-05-22T11:00:01.000Z,11.875
2019-05-22T11:01:01.000Z,11.875
2019-05-22T11:02:01.000Z,11.875
2019-05-22T11:03:01.000Z,11.875
2019-05-22T11:04:01.000Z,11.875
2019-05-22T11:05:01.000Z,11.937
2019-05-22T11:06:01.000Z,11.875
2019-05-22T11:07:01.000Z,11.875
2019-05-22T11:08:01.000Z,11.812
2019-05-22T11:09:01.000Z,11.75
2019-05-22T11:10:01.000Z,11.687
2019-05-22T11:11:01.000Z,11.687
2019-05-22T11:12:02.000Z,11.625
2019-05-22T11:12:02.000Z,11.625
2019-05-22T11:13:01.000Z,11.625
2019-05-22T11:14:01.000Z,11.625
2019-05-22T11:15:02.000Z,11.562
2019-05-22T11:16:02.000Z,11.625
2019-05-22T11:17:02.000Z,11.562
2019-05-22T11:18:01.000Z,11.625
2019-05-22T11:19:01.000Z,11.625
2019-05-22T11:20:01.000Z,11.687
2019-05-22T11:21:01.000Z,11.687
2019-05-22T11:22:01.000Z,11.75
2019-05-22T11:23:02.000Z,11.75
2019-05-22T11:24:02.000Z,11.75
2019-05-22T11:24:02.000Z,11.75
2019-05-22T11:25:02.000Z,11.812
2019-05-22T11:26:01.000Z,11.812
2019-05-22T11:27:01.000Z,11.875
2019-05-22T11:28:01.000Z,11.875
2019-05-22T11:29:02.000Z,11.937
2019-05-22T11:30:02.000Z,12
2019-05-22T11:31:02.000Z,12
2019-05-22T11:32:02.000Z,12
2019-05-22T11:33:02.000Z,12
2019-05-22T11:33:02.000Z,12
2019-05-22T11:34:02.000Z,12
2019-05-22T11:35:02.000Z,12
2019-05-22T11:36:02.000Z,12.062
2019-05-22T11:37:01.000Z,12.062
2019-05-22T11:38:01.000Z,12.062
2019-05-22T11:39:01.000Z,12.062
2019-05-22T11:40:01.000Z,12.062
2019-05-22T11:41:01.000Z,12.062
2019-05-22T11:42:01.000Z,12.062
2019-05-22T11:43:01.000Z,12.062
2019-05-22T11:44:01.000Z,12.062
2019-05-22T11:45:01.000Z,12.062
2019-05-22T11:46:01.000Z,12
2019-05-22T11:46:01.000Z,12
2019-05-22T11:47:01.000Z,11.937
2019-05-22T11:48:01.000Z,12
2019-05-22T11:49:01.000Z,12
2019-05-22T11:50:02.000Z,11.937
2019-05-22T11:51:01.000Z,11.937
2019-05-22T11:52:02.000Z,11.937
2019-05-22T11:53:02.000Z,11.937
2019-05-22T11:54:01.000Z,11.875
2019-05-22T11:55:02.000Z,11.875
2019-05-22T11:56:01.000Z,11.875
2019-05-22T11:57:01.000Z,11.875
2019-05-22T11:58:01.000Z,11.875